Time;durP1;ratioP1;P1;durP2;ratioP2;P2;SDS_P1;SDS_P2;PMS_P1;PMS_P2;Temp;Humidity;BMP_temperature;BMP_pressure;BME280_temperature;BME280_humidity;BME280_pressure;Samples;Min_cycle;Max_cycle;Signal;HPM_P1;HPM_P2
2022/01/14 00:01:41;;;;;;;175.15;53.42;;;-0.50;99.90;;;;;;5096253;28;20024;-65
2022/01/14 00:04:07;;;;;;;175.98;51.72;;;-0.50;99.90;;;;;;5094849;28;20084;-65
2022/01/14 00:06:32;;;;;;;167.35;50.47;;;-0.50;99.90;;;;;;5095370;28;20024;-65
2022/01/14 00:09:06;;;;;;;152.80;49.95;;;-0.50;99.90;;;;;;5095096;28;20024;-65
2022/01/14 00:11:33;;;;;;;171.68;52.15;;;-0.50;99.90;;;;;;5094833;28;20031;-65
2022/01/14 00:14:19;;;;;;;172.75;52.85;;;-0.50;99.90;;;;;;5095000;28;20020;-66
2022/01/14 00:16:45;;;;;;;175.65;51.95;;;-0.40;99.90;;;;;;5095670;28;20437;-66
2022/01/14 00:19:11;;;;;;;177.50;58.05;;;-0.30;99.90;;;;;;5095121;28;20020;-66
2022/01/14 00:21:39;;;;;;;192.65;58.38;;;0.20;99.90;;;;;;5095638;28;20059;-66
2022/01/14 00:24:12;;;;;;;192.30;57.33;;;0.40;99.90;;;;;;5094498;28;20013;-66
2022/01/14 00:32:21;;;;;;;197.07;57.00;;;0.60;99.90;;;;;;5095202;28;20039;-66
2022/01/14 00:34:46;;;;;;;186.38;58.65;;;0.70;99.90;;;;;;5094682;28;20099;-66
2022/01/14 00:37:16;;;;;;;196.80;56.63;;;0.60;99.90;;;;;;5095926;28;20103;-66
2022/01/14 00:39:41;;;;;;;173.73;53.50;;;0.60;99.90;;;;;;5095912;28;20048;-66
2022/01/14 00:42:08;;;;;;;182.13;53.63;;;0.50;99.90;;;;;;5094562;28;20063;-66
2022/01/14 00:44:33;;;;;;;180.13;53.60;;;0.40;99.90;;;;;;5095519;28;20020;-66
2022/01/14 00:47:02;;;;;;;180.20;51.78;;;0.40;99.90;;;;;;5094764;28;20136;-66
2022/01/14 00:49:27;;;;;;;157.65;51.30;;;0.30;99.90;;;;;;5095695;28;20016;-66
2022/01/14 00:51:53;;;;;;;187.23;55.13;;;0.30;99.90;;;;;;5095643;28;20081;-66
2022/01/14 00:54:18;;;;;;;197.40;58.70;;;0.30;99.90;;;;;;5094492;28;20043;-66
2022/01/14 00:56:48;;;;;;;233.82;59.47;;;0.40;99.90;;;;;;5094155;28;20457;-66
2022/01/14 00:59:16;;;;;;;194.75;57.08;;;0.40;99.90;;;;;;5093849;28;20024;-66
2022/01/14 01:01:48;;;;;;;208.43;59.22;;;0.40;99.90;;;;;;5093921;28;20070;-66
2022/01/14 01:04:17;;;;;;;227.65;61.03;;;0.40;99.90;;;;;;5093756;28;20465;-66
2022/01/14 01:06:44;;;;;;;220.65;59.50;;;0.50;99.90;;;;;;5093417;28;20027;-66
2022/01/14 01:09:12;;;;;;;237.35;61.88;;;0.50;99.90;;;;;;5077444;28;20492;-66
2022/01/14 01:11:44;;;;;;;246.93;65.90;;;0.50;99.90;;;;;;5093813;28;20427;-66
2022/01/14 01:14:14;;;;;;;222.07;62.13;;;0.60;99.90;;;;;;5094948;28;20032;-66
2022/01/14 01:16:40;;;;;;;240.13;66.95;;;0.70;99.90;;;;;;5094227;28;20488;-65
2022/01/14 01:19:05;;;;;;;244.07;64.82;;;0.90;99.90;;;;;;5093981;28;20024;-66
2022/01/14 01:21:31;;;;;;;240.57;66.38;;;0.90;99.90;;;;;;5093398;28;20044;-66
2022/01/14 01:23:57;;;;;;;240.27;64.53;;;0.90;99.90;;;;;;5093728;28;20061;-65
2022/01/14 01:26:30;;;;;;;269.05;66.05;;;0.90;99.90;;;;;;5095050;28;20052;-65
2022/01/14 01:29:03;;;;;;;270.08;65.05;;;0.90;99.90;;;;;;5093596;28;20016;-65
2022/01/14 01:31:37;;;;;;;273.73;68.10;;;1.00;99.90;;;;;;5093648;28;20585;-65
2022/01/14 01:34:06;;;;;;;272.33;68.95;;;1.20;99.90;;;;;;5077343;28;20468;-66
2022/01/14 01:36:32;;;;;;;261.75;64.82;;;1.20;99.90;;;;;;5093344;28;20023;-65
2022/01/14 01:38:57;;;;;;;293.48;69.78;;;1.30;99.90;;;;;;5094801;28;20024;-65
2022/01/14 01:41:24;;;;;;;276.65;67.45;;;1.40;99.90;;;;;;5093290;28;20028;-65
2022/01/14 01:43:52;;;;;;;259.73;64.07;;;1.40;99.90;;;;;;5092821;28;20056;-65
2022/01/14 01:46:20;;;;;;;266.15;68.50;;;1.50;99.90;;;;;;5092974;28;20016;-65
2022/01/14 01:48:48;;;;;;;292.55;69.13;;;1.50;99.90;;;;;;5092845;28;20016;-66
2022/01/14 01:51:14;;;;;;;273.48;65.70;;;1.50;99.90;;;;;;5093981;28;20024;-66
2022/01/14 01:53:39;;;;;;;271.77;70.18;;;1.50;99.90;;;;;;5092714;28;20032;-66
2022/01/14 01:56:05;;;;;;;282.80;65.97;;;1.50;99.90;;;;;;5094493;28;20031;-66
2022/01/14 01:58:31;;;;;;;271.42;68.00;;;1.50;99.90;;;;;;5092674;28;20028;-66
2022/01/14 02:00:57;;;;;;;279.52;72.10;;;1.50;99.90;;;;;;5092985;28;20052;-66
2022/01/14 02:03:22;;;;;;;255.48;68.20;;;1.60;99.90;;;;;;5093197;28;20477;-66
2022/01/14 02:05:48;;;;;;;275.45;69.15;;;1.60;99.90;;;;;;5093239;28;20409;-66
2022/01/14 02:08:14;;;;;;;276.98;68.60;;;1.60;99.90;;;;;;5092910;28;20023;-66
2022/01/14 02:10:40;;;;;;;289.20;72.45;;;1.60;99.90;;;;;;5092858;28;20095;-65
2022/01/14 02:13:06;;;;;;;274.60;67.13;;;1.70;99.90;;;;;;5092848;28;20377;-65
2022/01/14 02:15:50;;;;;;;258.27;67.15;;;1.70;99.90;;;;;;5094288;28;20030;-66
2022/01/14 02:23:52;;;;;;;265.10;65.72;;;1.70;99.90;;;;;;5111196;28;20036;-66
2022/01/14 02:26:19;;;;;;;264.48;67.10;;;1.70;99.90;;;;;;5093835;28;20026;-66
2022/01/14 02:28:47;;;;;;;273.95;68.65;;;1.70;99.90;;;;;;5093656;28;20453;-66
2022/01/14 02:31:13;;;;;;;288.25;70.18;;;1.70;99.90;;;;;;5093245;28;20019;-66
2022/01/14 02:33:39;;;;;;;286.63;69.05;;;1.70;99.90;;;;;;5092999;28;20384;-66
2022/01/14 02:36:05;;;;;;;299.20;68.93;;;1.70;99.90;;;;;;5092994;28;20374;-66
2022/01/14 02:38:30;;;;;;;297.20;71.07;;;1.70;99.90;;;;;;5092823;28;20031;-66
2022/01/14 02:40:56;;;;;;;288.70;72.18;;;1.60;99.90;;;;;;5092810;28;20024;-66
2022/01/14 02:43:23;;;;;;;338.70;74.63;;;1.70;99.90;;;;;;5109836;28;20028;-66
2022/01/14 02:45:52;;;;;;;328.75;74.22;;;1.70;99.90;;;;;;5110072;28;20016;-66
2022/01/14 02:48:20;;;;;;;322.80;74.28;;;1.70;99.90;;;;;;5093210;28;20028;-66
2022/01/14 02:51:18;;;;;;;338.27;76.07;;;1.70;99.90;;;;;;5111173;28;20053;-66
2022/01/14 02:56:19;;;;;;;288.58;68.57;;;1.60;99.90;;;;;;5109960;28;20490;-66
2022/01/14 02:58:46;;;;;;;306.17;71.82;;;1.60;99.90;;;;;;5109775;28;20510;-66
2022/01/14 03:01:17;;;;;;;308.52;68.72;;;1.60;99.90;;;;;;5109778;28;20136;-66
2022/01/14 03:03:43;;;;;;;295.23;70.22;;;1.60;99.90;;;;;;5109747;28;20024;-66
2022/01/14 03:06:10;;;;;;;277.30;69.65;;;1.60;99.90;;;;;;5092415;28;20024;-66
2022/01/14 03:08:35;;;;;;;261.92;64.45;;;1.60;99.90;;;;;;5092333;28;20020;-66
2022/01/14 03:11:12;;;;;;;262.80;63.45;;;1.60;99.90;;;;;;5092240;28;20043;-66
2022/01/14 03:13:39;;;;;;;263.55;65.30;;;1.60;99.90;;;;;;5109211;28;20020;-66
2022/01/14 03:16:05;;;;;;;267.73;63.15;;;1.60;99.90;;;;;;5109167;28;20489;-66
2022/01/14 03:18:43;;;;;;;256.17;64.63;;;1.60;99.90;;;;;;5109491;28;20028;-66
2022/01/14 03:21:10;;;;;;;269.17;63.22;;;1.60;99.90;;;;;;5093728;28;20119;-66
2022/01/14 03:23:43;;;;;;;262.80;62.45;;;1.60;99.90;;;;;;5109028;28;20070;-66
2022/01/14 03:26:09;;;;;;;;;;;1.60;99.90;;;;;;5093243;28;20388;-66
2022/01/14 03:28:34;;;;;;;259.55;60.75;;;1.60;99.90;;;;;;5110183;28;19910;-66
2022/01/14 03:31:00;;;;;;;260.48;63.80;;;1.60;99.90;;;;;;5102572;28;20025;-66
2022/01/14 03:33:25;;;;;;;270.55;63.58;;;1.60;99.90;;;;;;5095625;28;20461;-66
2022/01/14 03:35:51;;;;;;;232.75;58.22;;;1.60;99.90;;;;;;5078333;28;20055;-66
2022/01/14 03:38:17;;;;;;;264.90;59.83;;;1.60;99.90;;;;;;5095522;28;20059;-65
2022/01/14 03:40:43;;;;;;;248.90;61.88;;;1.60;99.90;;;;;;5096321;28;20028;-66
2022/01/14 03:43:10;;;;;;;272.73;61.42;;;1.60;99.90;;;;;;5095711;28;20030;-66
2022/01/14 03:45:37;;;;;;;238.55;60.50;;;1.60;99.90;;;;;;5095036;28;20384;-66
2022/01/14 03:48:03;;;;;;;245.48;58.42;;;1.60;99.90;;;;;;5078392;28;20044;-66
2022/01/14 03:50:29;;;;;;;269.13;62.95;;;1.60;99.90;;;;;;5096172;28;20058;-66
2022/01/14 03:52:54;;;;;;;258.13;59.63;;;1.60;99.90;;;;;;5077999;28;20111;-66
2022/01/14 03:55:20;;;;;;;246.38;59.50;;;1.60;99.90;;;;;;5078541;28;20032;-66
2022/01/14 03:57:46;;;;;;;241.63;59.08;;;1.60;99.90;;;;;;5077921;28;20031;-66
2022/01/14 04:00:12;;;;;;;213.05;55.65;;;1.60;99.90;;;;;;5095018;28;20024;-66
2022/01/14 04:02:37;;;;;;;242.05;57.55;;;1.60;99.90;;;;;;5094714;28;20017;-66
2022/01/14 04:05:03;;;;;;;209.07;52.50;;;1.60;99.90;;;;;;5096175;28;20016;-66
2022/01/14 04:07:29;;;;;;;189.98;53.67;;;1.60;99.90;;;;;;5094964;28;20038;-66
2022/01/14 04:09:54;;;;;;;204.95;54.53;;;1.60;99.90;;;;;;5077717;28;20020;-66
2022/01/14 04:12:32;;;;;;;202.88;51.47;;;1.60;99.90;;;;;;5095126;28;20105;-66
2022/01/14 04:17:27;;;;;;;203.65;49.47;;;1.60;99.90;;;;;;5094798;28;20035;-66
2022/01/14 04:19:52;;;;;;;208.00;51.60;;;1.60;99.90;;;;;;5095611;28;20126;-66
2022/01/14 04:22:18;;;;;;;200.07;50.70;;;1.60;99.90;;;;;;5078021;28;20418;-66
2022/01/14 04:24:43;;;;;;;221.60;53.50;;;1.60;99.90;;;;;;5096047;28;20028;-66
2022/01/14 04:27:08;;;;;;;215.38;52.55;;;1.60;99.90;;;;;;5094565;28;20073;-66
2022/01/14 04:29:34;;;;;;;227.63;53.67;;;1.60;99.90;;;;;;5095649;28;20028;-66
2022/01/14 04:32:00;;;;;;;255.23;54.35;;;1.60;99.90;;;;;;5077261;28;20032;-66
2022/01/14 04:34:25;;;;;;;204.15;52.65;;;1.50;99.90;;;;;;5094703;28;20028;-66
2022/01/14 04:36:51;;;;;;;278.80;58.22;;;1.60;99.90;;;;;;5077088;28;20028;-66
2022/01/14 04:39:16;;;;;;;341.85;60.35;;;1.50;99.90;;;;;;5093872;28;20064;-66
2022/01/14 04:41:42;;;;;;;325.48;60.30;;;1.50;99.90;;;;;;5095564;28;20020;-66
2022/01/14 04:44:07;;;;;;;279.77;57.38;;;1.50;99.90;;;;;;5094528;28;20034;-66
2022/01/14 04:49:08;;;;;;;326.95;59.55;;;1.50;99.90;;;;;;5095013;28;20035;-66
2022/01/14 04:51:34;;;;;;;360.33;63.42;;;1.50;99.90;;;;;;5093695;28;20457;-66
2022/01/14 04:54:02;;;;;;;290.85;56.42;;;1.60;99.90;;;;;;5095195;28;20035;-65
2022/01/14 04:56:27;;;;;;;278.77;59.05;;;1.60;99.90;;;;;;5093672;28;20046;-66
2022/01/14 04:58:53;;;;;;;272.00;57.75;;;1.50;99.90;;;;;;5095324;28;20512;-66
2022/01/14 05:01:19;;;;;;;293.50;57.83;;;1.50;99.90;;;;;;5076696;28;20016;-66
2022/01/14 05:03:44;;;;;;;247.70;55.13;;;1.50;99.90;;;;;;5095005;28;20081;-66
2022/01/14 05:06:10;;;;;;;286.10;56.05;;;1.60;99.90;;;;;;5095248;28;20016;-66
2022/01/14 05:08:38;;;;;;;323.10;56.60;;;1.50;99.90;;;;;;5093975;28;20066;-66
2022/01/14 05:11:23;;;;;;;237.65;54.17;;;1.50;99.90;;;;;;5093454;28;20024;-66
2022/01/14 05:13:49;;;;;;;300.70;56.42;;;1.50;99.90;;;;;;5078988;28;20440;-66
2022/01/14 05:16:14;;;;;;;295.25;57.13;;;1.50;99.90;;;;;;5093707;28;20066;-66
2022/01/14 05:18:40;;;;;;;332.88;57.72;;;1.50;99.90;;;;;;5093025;28;20020;-66
2022/01/14 05:21:06;;;;;;;305.40;58.40;;;1.50;99.90;;;;;;5076443;28;20088;-66
2022/01/14 05:23:33;;;;;;;374.48;61.17;;;1.50;99.90;;;;;;5093801;28;20024;-66
2022/01/14 05:25:59;;;;;;;269.77;56.60;;;1.40;99.90;;;;;;5093951;28;20107;-66
2022/01/14 05:28:24;;;;;;;364.73;62.70;;;1.50;99.90;;;;;;5081680;28;20032;-66
2022/01/14 05:30:50;;;;;;;339.20;62.33;;;1.50;99.90;;;;;;5081905;28;20036;-66
2022/01/14 05:33:16;;;;;;;318.52;58.65;;;1.50;99.90;;;;;;5093952;28;20035;-66
2022/01/14 05:35:42;;;;;;;357.13;61.72;;;1.50;99.90;;;;;;5094479;28;20052;-67
2022/01/14 05:38:08;;;;;;;378.00;63.63;;;1.50;99.90;;;;;;5093270;28;20066;-66
2022/01/14 05:40:34;;;;;;;359.15;63.60;;;1.50;99.90;;;;;;5094297;28;20051;-66
2022/01/14 05:43:00;;;;;;;330.50;62.03;;;1.50;99.90;;;;;;5092817;28;20511;-67
2022/01/14 05:45:26;;;;;;;292.75;57.28;;;1.50;99.90;;;;;;5094561;28;20024;-66
2022/01/14 05:47:52;;;;;;;316.63;60.25;;;1.50;99.90;;;;;;5093094;28;20020;-66
2022/01/14 05:50:22;;;;;;;303.98;59.25;;;1.50;99.90;;;;;;5075841;28;20536;-66
2022/01/14 05:52:48;;;;;;;347.08;61.85;;;1.50;99.90;;;;;;5092636;28;20054;-66
2022/01/14 05:55:16;;;;;;;272.90;56.75;;;1.50;99.90;;;;;;5094208;28;20453;-66
2022/01/14 05:57:42;;;;;;;422.05;66.43;;;1.50;99.90;;;;;;5093232;28;20028;-66
2022/01/14 06:00:13;;;;;;;283.88;58.90;;;1.50;99.90;;;;;;5092578;28;20061;-66
2022/01/14 06:02:39;;;;;;;310.17;58.70;;;1.50;99.90;;;;;;5092899;28;20028;-67
2022/01/14 06:05:04;;;;;;;253.45;56.05;;;1.50;99.90;;;;;;5094274;28;20373;-66
2022/01/14 06:07:30;;;;;;;288.15;58.00;;;1.50;99.90;;;;;;5093277;28;20024;-66
2022/01/14 06:09:55;;;;;;;344.63;58.17;;;1.60;99.90;;;;;;5092761;28;20384;-66
2022/01/14 06:12:21;;;;;;;304.17;58.25;;;1.60;99.90;;;;;;5094179;28;20461;-66
2022/01/14 06:14:46;;;;;;;304.13;59.45;;;1.60;99.90;;;;;;5093625;28;20024;-66
2022/01/14 06:17:12;;;;;;;323.65;60.50;;;1.60;99.90;;;;;;5092639;28;20077;-66
2022/01/14 06:19:37;;;;;;;280.58;58.55;;;1.60;99.90;;;;;;5092343;28;20160;-66
2022/01/14 06:22:03;;;;;;;295.08;58.70;;;1.60;99.90;;;;;;5092410;28;20027;-66
2022/01/14 06:24:29;;;;;;;291.42;56.65;;;1.60;99.90;;;;;;5092904;28;20025;-66
2022/01/14 06:26:54;;;;;;;298.48;59.03;;;1.50;99.90;;;;;;5092932;28;20024;-66
2022/01/14 06:29:21;;;;;;;298.58;59.78;;;1.50;99.90;;;;;;5093497;28;20031;-66
2022/01/14 06:31:47;;;;;;;271.85;57.47;;;1.50;99.90;;;;;;5092776;28;20028;-66
2022/01/14 06:34:14;;;;;;;295.23;59.25;;;1.50;99.90;;;;;;5093943;28;20525;-66
2022/01/14 06:36:41;;;;;;;251.52;52.45;;;1.60;99.90;;;;;;5092443;28;20020;-66
2022/01/14 06:39:06;;;;;;;267.50;54.83;;;1.60;99.90;;;;;;5092415;28;20103;-66
2022/01/14 06:41:32;;;;;;;303.38;54.22;;;1.60;99.90;;;;;;5075840;28;20158;-66
2022/01/14 06:43:58;;;;;;;279.88;54.50;;;1.60;99.90;;;;;;5075390;28;20119;-66
2022/01/14 06:46:23;;;;;;;268.58;55.42;;;1.60;99.90;;;;;;5093331;28;20499;-66
2022/01/14 06:48:49;;;;;;;256.20;52.63;;;1.50;99.90;;;;;;5092424;28;20016;-66
2022/01/14 06:51:15;;;;;;;259.73;50.13;;;1.60;99.90;;;;;;5092389;28;20025;-66
2022/01/14 06:53:42;;;;;;;272.48;55.15;;;1.50;99.90;;;;;;5075259;28;20381;-66
2022/01/14 06:56:11;;;;;;;303.30;56.53;;;1.60;99.90;;;;;;5075483;28;20021;-67
2022/01/14 06:58:36;;;;;;;291.63;58.28;;;1.60;99.90;;;;;;5075488;28;20417;-66
2022/01/14 07:01:02;;;;;;;281.13;55.20;;;1.60;99.90;;;;;;5093448;28;20086;-66
2022/01/14 07:03:28;;;;;;;307.73;60.15;;;1.60;99.90;;;;;;5092309;28;20028;-66
2022/01/14 07:05:53;;;;;;;314.70;59.85;;;1.60;99.90;;;;;;5094465;28;20376;-66
2022/01/14 07:08:19;;;;;;;347.30;63.80;;;1.60;99.90;;;;;;5096480;28;20139;-66
2022/01/14 07:10:44;;;;;;;383.48;67.63;;;1.60;99.90;;;;;;5095361;28;20441;-66
2022/01/14 07:13:09;;;;;;;421.23;71.35;;;1.60;99.90;;;;;;5095729;28;20020;-66
2022/01/14 07:15:35;;;;;;;454.65;70.07;;;1.60;99.90;;;;;;5094018;28;20373;-66
2022/01/14 07:18:01;;;;;;;516.92;82.50;;;1.60;99.90;;;;;;5095527;28;20099;-66
2022/01/14 07:20:26;;;;;;;446.02;72.40;;;1.60;99.90;;;;;;5096515;28;20044;-66
2022/01/14 07:22:52;;;;;;;606.58;86.15;;;1.60;99.90;;;;;;5095802;28;20474;-66
2022/01/14 07:25:19;;;;;;;577.92;87.07;;;1.60;99.90;;;;;;5079001;28;20034;-67
2022/01/14 07:27:45;;;;;;;595.03;86.15;;;1.60;99.90;;;;;;5097112;28;20045;-66
2022/01/14 07:30:11;;;;;;;657.50;88.05;;;1.60;99.90;;;;;;5097125;28;20102;-67
2022/01/14 07:32:36;;;;;;;671.95;92.22;;;1.70;99.90;;;;;;5095673;28;20049;-66
2022/01/14 07:35:03;;;;;;;563.00;83.90;;;1.70;99.90;;;;;;5095143;28;20061;-66
2022/01/14 07:37:29;;;;;;;609.90;88.63;;;1.70;99.90;;;;;;5078247;28;20032;-66
2022/01/14 07:39:54;;;;;;;390.45;72.43;;;1.70;99.90;;;;;;5096527;28;20048;-66
2022/01/14 07:42:20;;;;;;;564.67;82.03;;;1.70;99.90;;;;;;5094499;28;20419;-66
2022/01/14 07:44:45;;;;;;;569.28;85.65;;;1.70;99.90;;;;;;5095150;28;20103;-66
2022/01/14 07:47:11;;;;;;;527.60;80.20;;;1.70;99.90;;;;;;5098975;28;20024;-66
2022/01/14 07:49:36;;;;;;;559.30;85.75;;;1.70;99.90;;;;;;5077588;28;20024;-66
2022/01/14 07:52:02;;;;;;;411.98;74.15;;;1.60;99.90;;;;;;5094737;28;20107;-66
2022/01/14 07:54:28;;;;;;;554.75;85.53;;;1.70;99.90;;;;;;5100908;28;20063;-66
2022/01/14 07:56:57;;;;;;;614.28;89.00;;;1.70;99.90;;;;;;5099043;28;20028;-65
2022/01/14 07:59:26;;;;;;;662.63;95.82;;;1.60;99.90;;;;;;5064331;28;20077;-66
2022/01/14 08:01:55;;;;;;;521.67;83.10;;;1.70;99.90;;;;;;5079606;28;20148;-67
2022/01/14 08:04:21;;;;;;;544.42;83.25;;;1.70;99.90;;;;;;5093102;28;20020;-67
2022/01/14 08:06:49;;;;;;;684.75;94.82;;;1.60;99.90;;;;;;5094239;28;20048;-65
2022/01/14 08:09:16;;;;;;;564.78;89.65;;;1.60;99.90;;;;;;5093438;28;20051;-67
2022/01/14 08:11:43;;;;;;;554.42;84.65;;;1.60;99.90;;;;;;5076776;28;20039;-66
2022/01/14 08:14:09;;;;;;;596.95;89.88;;;1.60;99.90;;;;;;5073984;28;20448;-67
2022/01/14 08:16:34;;;;;;;608.88;89.97;;;1.60;99.90;;;;;;5074724;28;20036;-66
2022/01/14 08:19:00;;;;;;;544.22;86.10;;;1.60;99.90;;;;;;5040686;28;20070;-67
2022/01/14 08:21:25;;;;;;;538.95;85.00;;;1.70;99.90;;;;;;5074613;28;20064;-67
2022/01/14 08:23:51;;;;;;;604.90;88.13;;;1.70;99.90;;;;;;5075824;28;20052;-66
2022/01/14 08:26:17;;;;;;;572.15;84.75;;;1.70;99.90;;;;;;5074584;28;20024;-67
2022/01/14 08:28:43;;;;;;;525.85;80.50;;;1.70;99.90;;;;;;5075137;28;20031;-67
2022/01/14 08:31:08;;;;;;;523.17;81.35;;;1.70;99.90;;;;;;5040572;28;20024;-67
2022/01/14 08:33:36;;;;;;;504.67;78.20;;;1.70;99.90;;;;;;5073961;28;20029;-67
2022/01/14 08:36:01;;;;;;;444.67;75.03;;;1.70;99.90;;;;;;5073741;28;20098;-66
2022/01/14 08:38:27;;;;;;;500.70;78.03;;;1.80;99.90;;;;;;5074003;28;20486;-67
2022/01/14 08:40:53;;;;;;;400.38;67.40;;;1.80;99.90;;;;;;5074693;28;20020;-66
2022/01/14 08:43:19;;;;;;;392.65;65.90;;;1.80;99.90;;;;;;5074820;28;20024;-67
2022/01/14 08:45:45;;;;;;;459.92;67.15;;;1.80;99.90;;;;;;5074146;28;20029;-66
2022/01/14 08:48:11;;;;;;;361.83;63.17;;;1.80;99.90;;;;;;5075328;28;20080;-65
2022/01/14 08:50:38;;;;;;;326.90;61.33;;;1.80;99.90;;;;;;5057224;28;20535;-67
2022/01/14 08:53:07;;;;;;;328.20;60.70;;;1.80;99.90;;;;;;5073816;28;20033;-67
2022/01/14 08:55:34;;;;;;;293.02;58.35;;;1.90;99.90;;;;;;5057282;28;20029;-67
2022/01/14 08:58:00;;;;;;;330.13;60.30;;;1.90;99.90;;;;;;5073734;28;20062;-67
2022/01/14 09:00:26;;;;;;;317.67;60.50;;;1.90;99.90;;;;;;5074839;28;20025;-66
2022/01/14 09:02:52;;;;;;;396.80;62.40;;;2.00;99.90;;;;;;5075013;28;20078;-67
2022/01/14 09:05:19;;;;;;;367.63;63.40;;;2.00;99.90;;;;;;5073826;28;20188;-67
2022/01/14 09:07:45;;;;;;;316.60;58.95;;;2.00;99.90;;;;;;5040715;28;20059;-67
2022/01/14 09:10:11;;;;;;;323.55;62.45;;;2.00;99.90;;;;;;5074656;28;20071;-66
2022/01/14 09:12:37;;;;;;;335.85;60.50;;;2.10;99.90;;;;;;5074831;28;20039;-66
2022/01/14 09:15:04;;;;;;;326.70;60.25;;;2.00;99.90;;;;;;5074755;28;20032;-66
2022/01/14 09:17:29;;;;;;;313.75;61.05;;;2.00;99.90;;;;;;5073291;28;20149;-66
2022/01/14 09:19:56;;;;;;;299.35;57.03;;;2.00;99.90;;;;;;5074650;28;20077;-66
2022/01/14 09:22:22;;;;;;;394.05;63.10;;;2.10;99.90;;;;;;5074379;28;20028;-66
2022/01/14 09:24:48;;;;;;;355.92;61.63;;;2.00;99.90;;;;;;5074671;28;20016;-66
2022/01/14 09:27:15;;;;;;;337.40;60.15;;;2.00;99.90;;;;;;5056366;28;20024;-66
2022/01/14 09:29:42;;;;;;;303.70;57.20;;;2.00;99.90;;;;;;5055706;28;20086;-66
2022/01/14 09:32:09;;;;;;;293.50;58.45;;;2.10;99.90;;;;;;5074164;28;20415;-66
2022/01/14 09:34:36;;;;;;;356.23;64.20;;;2.10;99.90;;;;;;5073274;28;20028;-66
2022/01/14 09:37:01;;;;;;;294.27;58.75;;;2.10;99.90;;;;;;5074374;28;20024;-66
2022/01/14 09:39:27;;;;;;;343.70;64.28;;;2.10;99.90;;;;;;5074349;28;20366;-66
2022/01/14 09:41:53;;;;;;;310.88;63.63;;;2.10;99.90;;;;;;5073201;28;20019;-66
2022/01/14 09:44:20;;;;;;;325.65;61.42;;;2.10;99.90;;;;;;5073714;28;20037;-67
2022/01/14 09:46:50;;;;;;;306.92;61.35;;;2.10;99.90;;;;;;5073913;28;20020;-66
2022/01/14 09:49:16;;;;;;;295.25;62.47;;;2.20;99.90;;;;;;5072756;28;20358;-66
2022/01/14 09:51:42;;;;;;;349.27;65.10;;;2.20;99.90;;;;;;5073892;28;20028;-66
2022/01/14 09:54:10;;;;;;;325.30;63.53;;;2.20;99.90;;;;;;5074121;28;20406;-66
2022/01/14 09:56:37;;;;;;;338.17;67.57;;;2.20;99.90;;;;;;5072952;28;20025;-67
2022/01/14 09:59:04;;;;;;;325.27;67.57;;;2.20;99.90;;;;;;5073709;28;20032;-66
2022/01/14 10:01:39;;;;;;;379.30;71.80;;;2.20;99.90;;;;;;5072854;28;20028;-66
2022/01/14 10:04:04;;;;;;;325.50;65.25;;;2.20;99.90;;;;;;5073810;28;20541;-66
2022/01/14 10:06:36;;;;;;;319.58;66.68;;;2.20;99.90;;;;;;5074026;28;20095;-67
2022/01/14 10:09:10;;;;;;;336.58;66.57;;;2.20;99.90;;;;;;5072759;28;20373;-67
2022/01/14 10:11:37;;;;;;;328.33;69.10;;;2.20;99.90;;;;;;5073074;28;20079;-67
2022/01/14 10:14:05;;;;;;;323.27;65.93;;;2.20;99.90;;;;;;5073641;28;20012;-67
2022/01/14 10:16:31;;;;;;;328.95;65.75;;;2.30;99.90;;;;;;5072470;28;20024;-67
2022/01/14 10:18:56;;;;;;;296.67;64.63;;;2.30;99.90;;;;;;5073485;28;20575;-67
2022/01/14 10:21:30;;;;;;;299.27;66.00;;;2.20;99.90;;;;;;5073884;28;20474;-67
2022/01/14 10:23:56;;;;;;;307.92;64.57;;;2.30;99.90;;;;;;5072428;28;20025;-66
2022/01/14 10:26:21;;;;;;;307.60;65.40;;;2.30;99.90;;;;;;5072557;28;20513;-67
2022/01/14 10:29:06;;;;;;;288.35;63.22;;;2.30;99.90;;;;;;5073820;28;20047;-67
2022/01/14 10:31:33;;;;;;;264.63;58.63;;;2.30;99.90;;;;;;5073181;28;20500;-67
2022/01/14 10:34:16;;;;;;;324.38;67.13;;;2.40;99.90;;;;;;5072545;28;20115;-67
2022/01/14 10:36:44;;;;;;;350.13;69.50;;;2.40;99.90;;;;;;5073265;28;20038;-67
2022/01/14 10:39:19;;;;;;;344.70;66.60;;;2.40;99.90;;;;;;5072629;28;20024;-67
2022/01/14 10:41:44;;;;;;;364.33;72.35;;;2.50;99.90;;;;;;5057668;28;20167;-67
2022/01/14 10:44:28;;;;;;;322.88;71.63;;;2.50;99.90;;;;;;5075923;28;20115;-67
2022/01/14 10:47:15;;;;;;;340.40;71.97;;;2.50;99.90;;;;;;5077696;28;20032;-67
2022/01/14 10:49:42;;;;;;;357.05;72.53;;;2.50;99.90;;;;;;5077006;28;20020;-67
2022/01/14 10:52:26;;;;;;;331.75;69.20;;;2.50;99.90;;;;;;5075707;28;20048;-67
2022/01/14 10:54:55;;;;;;;335.35;72.72;;;2.50;99.90;;;;;;5075571;28;20033;-67
2022/01/14 10:57:23;;;;;;;323.20;71.10;;;2.50;99.90;;;;;;5059410;28;20479;-67
2022/01/14 10:59:52;;;;;;;364.33;73.07;;;2.50;99.90;;;;;;5092293;28;20036;-70
2022/01/14 11:02:36;;;;;;;334.02;71.45;;;2.50;99.90;;;;;;5095358;28;20050;-69
2022/01/14 11:05:08;;;;;;;321.42;68.88;;;2.60;99.90;;;;;;5097877;28;20027;-69
2022/01/14 11:07:34;;;;;;;297.17;66.95;;;2.60;99.90;;;;;;5097179;28;20016;-70
2022/01/14 11:10:11;;;;;;;326.80;72.72;;;2.50;99.90;;;;;;5100711;28;20485;-70
2022/01/14 11:12:37;;;;;;;321.90;68.90;;;2.60;99.90;;;;;;5087031;28;20089;-70
2022/01/14 11:15:03;;;;;;;288.08;65.18;;;2.60;99.90;;;;;;5103652;28;20426;-70
2022/01/14 11:17:29;;;;;;;282.80;63.47;;;2.60;99.90;;;;;;5095748;28;20047;-70
2022/01/14 11:19:54;;;;;;;290.00;65.35;;;2.60;99.90;;;;;;5106668;28;20040;-70
2022/01/14 11:25:09;;;;;;;287.13;66.25;;;2.00;99.90;;;;;;5095413;28;20055;-70
2022/01/14 11:27:36;;;;;;;272.42;67.15;;;2.90;99.90;;;;;;5095281;28;20039;-70
2022/01/14 11:30:01;;;;;;;285.65;65.53;;;2.80;99.90;;;;;;5097736;28;20024;-70
2022/01/14 11:32:27;;;;;;;270.80;64.55;;;2.80;99.90;;;;;;5100488;28;20377;-70
2022/01/14 11:34:53;;;;;;;238.57;63.58;;;2.80;99.90;;;;;;5110740;28;20024;-70
2022/01/14 11:37:36;;;;;;;253.85;64.28;;;2.80;99.90;;;;;;5096232;28;20028;-70
2022/01/14 11:40:04;;;;;;;;;;;2.80;99.90;;;;;;5098216;28;20028;-70
2022/01/14 11:42:50;;;;;;;253.23;63.35;;;2.80;99.90;;;;;;5095447;28;20265;-70
2022/01/14 11:45:20;;;;;;;252.45;64.05;;;2.80;99.90;;;;;;5096734;28;20414;-70
2022/01/14 11:47:48;;;;;;;239.73;58.85;;;2.90;99.90;;;;;;5095913;28;20024;-70
2022/01/14 11:53:01;;;;;;;270.50;63.97;;;2.80;99.90;;;;;;5111001;27;20873;-70
2022/01/14 11:58:09;;;;;;;257.52;62.83;;;3.00;99.90;;;;;;5112106;27;20380;-70
2022/01/14 12:00:44;;;;;;;273.40;65.50;;;3.10;99.90;;;;;;5110910;28;20380;-70
2022/01/14 12:03:28;;;;;;;260.60;67.40;;;3.10;99.90;;;;;;5094069;28;20020;-71
2022/01/14 12:06:07;;;;;;;267.25;66.15;;;3.10;99.90;;;;;;5119456;28;20019;-71
2022/01/14 12:08:35;;;;;;;277.98;70.05;;;3.10;99.90;;;;;;5130349;28;20034;-72
2022/01/14 12:14:02;;;;;;;247.85;65.28;;;3.10;99.90;;;;;;5090696;28;20393;-71
2022/01/14 12:21:48;;;;;;;273.20;68.95;;;3.20;99.90;;;;;;5152637;27;20301;-66
2022/01/14 12:29:37;;;;;;;282.75;71.07;;;3.20;99.90;;;;;;5098223;27;20320;-71
2022/01/14 12:35:06;;;;;;;266.40;67.82;;;3.20;99.90;;;;;;5126582;27;20865;-66
2022/01/14 12:37:34;;;;;;;262.63;64.63;;;3.20;99.90;;;;;;5132252;27;20043;-66
2022/01/14 12:40:11;;;;;;;254.68;66.90;;;3.30;99.90;;;;;;5128935;28;20016;-66
2022/01/14 12:42:37;;;;;;;241.48;63.42;;;3.30;99.90;;;;;;5098640;28;20102;-67
2022/01/14 12:45:06;;;;;;;256.40;68.75;;;3.30;99.90;;;;;;5109953;28;20020;-66
2022/01/14 12:47:38;;;;;;;260.30;66.55;;;3.30;99.90;;;;;;5089356;28;20074;-66
2022/01/14 12:50:07;;;;;;;240.18;63.45;;;3.30;99.90;;;;;;5101629;28;20035;-68
2022/01/14 12:52:46;;;;;;;243.35;63.35;;;3.40;99.90;;;;;;5110115;28;20388;-66
2022/01/14 12:55:12;;;;;;;248.50;65.70;;;3.40;99.90;;;;;;5109489;28;20019;-68
2022/01/14 12:57:37;;;;;;;230.68;63.90;;;3.40;99.90;;;;;;5103220;28;20032;-67
2022/01/14 13:00:05;;;;;;;236.57;68.10;;;3.40;99.90;;;;;;5111286;28;20459;-67
2022/01/14 13:02:31;;;;;;;228.88;61.47;;;3.40;99.90;;;;;;5076095;28;20443;-71
2022/01/14 13:05:07;;;;;;;243.43;63.50;;;3.40;99.90;;;;;;5106507;28;20069;-70
2022/01/14 13:07:35;;;;;;;235.15;64.03;;;3.40;99.90;;;;;;5115489;28;20015;-70
2022/01/14 13:10:03;;;;;;;235.07;62.63;;;3.50;99.90;;;;;;5117967;28;20072;-71
2022/01/14 13:12:34;;;;;;;222.65;62.03;;;3.50;99.90;;;;;;5106383;28;20431;-71
2022/01/14 13:15:02;;;;;;;203.32;59.53;;;3.50;99.90;;;;;;5110035;28;20499;-70